Time;durP1;ratioP1;P1;durP2;ratioP2;P2;SDS_P1;SDS_P2;PMS_P1;PMS_P2;Temp;Humidity;BMP_temperature;BMP_pressure;BME280_temperature;BME280_humidity;BME280_pressure;Samples;Min_cycle;Max_cycle;Signal;HPM_P1;HPM_P2
2021/03/19 00:02:15;;;;;;;21.77;15.53;;;3.30;99.90;;;;;;5094200;28;20220;-67
2021/03/19 00:04:40;;;;;;;22.17;15.60;;;3.30;99.90;;;;;;5092354;28;20198;-68
2021/03/19 00:07:06;;;;;;;22.13;16.47;;;3.40;99.90;;;;;;5094002;28;20168;-67
2021/03/19 00:09:31;;;;;;;21.93;15.60;;;3.30;99.90;;;;;;5093340;28;20208;-69
2021/03/19 00:11:57;;;;;;;21.60;16.63;;;3.20;99.90;;;;;;5094097;28;20176;-67
2021/03/19 00:14:23;;;;;;;26.00;16.10;;;3.20;99.90;;;;;;5093702;28;20188;-67
2021/03/19 00:16:48;;;;;;;25.20;15.60;;;3.20;99.90;;;;;;5094070;28;20181;-67
2021/03/19 00:19:14;;;;;;;19.30;14.63;;;3.20;99.90;;;;;;5092415;28;20220;-69
2021/03/19 00:21:40;;;;;;;19.67;15.43;;;3.20;99.90;;;;;;5093872;28;20262;-67
2021/03/19 00:24:06;;;;;;;22.10;15.70;;;3.20;99.90;;;;;;5093669;28;20677;-67
2021/03/19 00:26:32;;;;;;;19.60;13.98;;;3.20;99.90;;;;;;5093466;28;20270;-67
2021/03/19 00:28:57;;;;;;;20.10;15.40;;;3.10;99.90;;;;;;5093519;28;20670;-67
2021/03/19 00:31:23;;;;;;;33.73;19.97;;;3.00;99.90;;;;;;5092386;28;20180;-69
2021/03/19 00:33:49;;;;;;;26.52;17.00;;;2.90;99.90;;;;;;5093380;28;20196;-68
2021/03/19 00:36:15;;;;;;;32.90;21.00;;;3.00;99.90;;;;;;5093718;28;20199;-67
2021/03/19 00:38:40;;;;;;;25.70;16.63;;;3.00;99.90;;;;;;5093399;28;20275;-68
2021/03/19 00:41:06;;;;;;;22.47;14.50;;;3.00;99.90;;;;;;5093656;28;20208;-68
2021/03/19 00:43:32;;;;;;;18.40;13.50;;;2.90;99.90;;;;;;5093358;28;20240;-68
2021/03/19 00:45:57;;;;;;;21.03;13.70;;;2.90;99.90;;;;;;5092127;28;20189;-67
2021/03/19 00:48:23;;;;;;;19.30;12.53;;;3.00;99.90;;;;;;5093293;28;20200;-67
2021/03/19 00:50:50;;;;;;;20.50;13.70;;;3.00;99.90;;;;;;5093508;28;20247;-67
2021/03/19 00:53:15;;;;;;;18.27;12.88;;;3.00;99.90;;;;;;5093334;28;20391;-68
2021/03/19 00:55:41;;;;;;;16.73;12.30;;;3.00;99.90;;;;;;5093437;28;20188;-67
2021/03/19 00:58:06;;;;;;;19.63;13.27;;;2.90;99.90;;;;;;5093677;28;20661;-67
2021/03/19 01:00:35;;;;;;;18.00;13.47;;;3.00;99.90;;;;;;5095809;28;20180;-67
2021/03/19 01:03:01;;;;;;;22.25;13.90;;;3.00;99.90;;;;;;5096878;28;20212;-67
2021/03/19 01:05:38;;;;;;;15.55;11.05;;;2.90;99.90;;;;;;5097032;28;20177;-69
2021/03/19 01:08:05;;;;;;;19.98;12.65;;;3.00;99.90;;;;;;5095659;28;20255;-68
2021/03/19 01:10:37;;;;;;;14.50;11.90;;;2.90;99.90;;;;;;5096872;28;20314;-68
2021/03/19 01:13:03;;;;;;;15.07;11.38;;;2.80;99.90;;;;;;5096890;28;20655;-68
2021/03/19 01:15:29;;;;;;;18.40;12.90;;;2.90;99.90;;;;;;5096886;28;20237;-67
2021/03/19 01:17:55;;;;;;;15.18;10.90;;;2.80;99.90;;;;;;5096709;28;20193;-68
2021/03/19 01:20:22;;;;;;;20.33;13.90;;;2.90;99.90;;;;;;5096330;28;20175;-67
2021/03/19 01:22:47;;;;;;;23.17;12.98;;;2.90;99.90;;;;;;5095243;28;20214;-68
2021/03/19 01:25:18;;;;;;;19.10;13.67;;;2.90;99.90;;;;;;5095285;28;20267;-67
2021/03/19 01:27:45;;;;;;;15.35;11.40;;;2.90;99.90;;;;;;5096538;28;20244;-66
2021/03/19 01:30:16;;;;;;;16.85;12.75;;;2.90;99.90;;;;;;5095238;28;20187;-67
2021/03/19 01:32:44;;;;;;;17.75;12.27;;;2.90;99.90;;;;;;5095107;28;20246;-67
2021/03/19 01:35:10;;;;;;;20.50;14.15;;;2.90;99.90;;;;;;5096383;28;20173;-67
2021/03/19 01:37:36;;;;;;;20.50;14.15;;;2.90;99.90;;;;;;5095057;28;20184;-68
2021/03/19 01:40:04;;;;;;;20.40;12.93;;;3.00;99.90;;;;;;5096310;28;20164;-68
2021/03/19 01:42:31;;;;;;;19.67;12.50;;;3.00;99.90;;;;;;5094496;28;20484;-67
2021/03/19 01:45:34;;;;;;;18.00;11.73;;;3.00;99.90;;;;;;5096244;28;20180;-69
2021/03/19 01:48:37;;;;;;;17.67;12.35;;;3.10;99.90;;;;;;5094793;28;20235;-68
2021/03/19 01:51:40;;;;;;;19.65;11.48;;;3.00;99.90;;;;;;5094930;28;20262;-68
2021/03/19 01:54:43;;;;;;;16.63;12.77;;;3.00;99.90;;;;;;5095962;28;20200;-67
2021/03/19 01:57:46;;;;;;;23.10;15.98;;;3.10;99.90;;;;;;5096541;28;20176;-68
2021/03/19 02:00:49;;;;;;;26.20;17.85;;;2.90;99.90;;;;;;5095891;28;20180;-69
2021/03/19 02:03:52;;;;;;;20.15;14.90;;;3.00;99.90;;;;;;5094470;28;20219;-67
2021/03/19 02:06:55;;;;;;;21.20;14.45;;;3.00;99.90;;;;;;5096049;28;20181;-67
2021/03/19 02:09:58;;;;;;;22.48;15.82;;;2.80;99.90;;;;;;5093731;28;20200;-67
2021/03/19 02:13:01;;;;;;;21.30;13.50;;;2.80;99.90;;;;;;5096138;28;20589;-68
2021/03/19 02:16:04;;;;;;;20.67;13.57;;;2.80;99.90;;;;;;5094389;28;20700;-69
2021/03/19 02:19:07;;;;;;;18.40;12.77;;;2.80;99.90;;;;;;5095581;28;20196;-68
2021/03/19 02:22:11;;;;;;;19.35;12.65;;;2.90;99.90;;;;;;5094271;28;20692;-67
2021/03/19 02:25:14;;;;;;;19.38;12.75;;;2.80;99.90;;;;;;5094132;28;20243;-68
2021/03/19 02:28:19;;;;;;;16.55;12.75;;;2.90;99.90;;;;;;5095323;28;20684;-67
2021/03/19 02:31:10;;;;;;;19.35;12.93;;;2.80;99.90;;;;;;5094056;28;20172;-69
2021/03/19 02:33:40;;;;;;;20.27;13.15;;;2.70;99.90;;;;;;5093927;28;20337;-67
2021/03/19 02:36:06;;;;;;;18.30;13.35;;;2.80;99.90;;;;;;5095456;28;20253;-67
2021/03/19 02:38:31;;;;;;;22.67;14.07;;;2.80;99.90;;;;;;5095113;28;20205;-69
2021/03/19 02:40:57;;;;;;;21.27;14.80;;;2.80;99.90;;;;;;5095222;28;20178;-68
2021/03/19 02:43:24;;;;;;;21.53;14.70;;;2.80;99.90;;;;;;5095093;28;20657;-68
2021/03/19 02:45:50;;;;;;;26.55;17.50;;;2.80;99.90;;;;;;5095096;28;20282;-69
2021/03/19 02:48:16;;;;;;;19.60;14.85;;;2.80;99.90;;;;;;5095037;28;20760;-68
2021/03/19 02:50:43;;;;;;;21.75;14.15;;;2.70;99.90;;;;;;5094962;28;20511;-68
2021/03/19 02:53:20;;;;;;;22.40;15.35;;;2.80;99.90;;;;;;5094950;28;21266;-67
2021/03/19 02:55:47;;;;;;;17.35;12.88;;;2.80;99.90;;;;;;5094954;28;20175;-67
2021/03/19 02:58:13;;;;;;;20.25;13.93;;;2.80;99.90;;;;;;5094742;28;20192;-67
2021/03/19 03:00:38;;;;;;;19.90;13.88;;;2.80;99.90;;;;;;5094715;28;20188;-67
2021/03/19 03:03:05;;;;;;;19.87;13.83;;;2.80;99.90;;;;;;5094508;28;20712;-68
2021/03/19 03:05:31;;;;;;;19.83;13.95;;;2.80;99.90;;;;;;5094712;28;20173;-69
2021/03/19 03:07:56;;;;;;;19.37;14.23;;;2.80;99.90;;;;;;5094587;28;20189;-67
2021/03/19 03:10:25;;;;;;;19.40;13.47;;;2.70;99.90;;;;;;5094547;28;20412;-70
2021/03/19 03:12:50;;;;;;;19.65;15.05;;;2.70;99.90;;;;;;5093115;28;20466;-67
2021/03/19 03:15:18;;;;;;;19.57;15.70;;;2.70;99.90;;;;;;5093271;28;20699;-67
2021/03/19 03:17:45;;;;;;;19.70;15.18;;;2.60;99.90;;;;;;5094384;28;20168;-66
2021/03/19 03:20:15;;;;;;;23.38;14.57;;;2.60;99.90;;;;;;5094375;28;20533;-67
2021/03/19 03:22:42;;;;;;;21.77;14.80;;;2.70;99.90;;;;;;5093528;28;20722;-68
2021/03/19 03:25:10;;;;;;;20.63;14.27;;;2.70;99.90;;;;;;5093002;28;20263;-67
2021/03/19 03:27:36;;;;;;;22.08;14.32;;;2.70;99.90;;;;;;5092955;28;20275;-68
2021/03/19 03:30:06;;;;;;;21.33;15.60;;;2.70;99.90;;;;;;5093026;28;20200;-68
2021/03/19 03:32:32;;;;;;;23.73;15.75;;;2.70;99.90;;;;;;5094096;28;20183;-67
2021/03/19 03:34:58;;;;;;;22.07;14.47;;;2.70;99.90;;;;;;5092949;28;20176;-68
2021/03/19 03:37:23;;;;;;;19.00;14.50;;;2.70;99.90;;;;;;5094614;28;20256;-69
2021/03/19 03:39:49;;;;;;;21.07;14.67;;;2.70;99.90;;;;;;5094049;28;20695;-67
2021/03/19 03:42:14;;;;;;;21.43;14.73;;;2.60;99.90;;;;;;5094139;28;20285;-67
2021/03/19 03:44:40;;;;;;;22.30;15.37;;;2.60;99.90;;;;;;5093991;28;20563;-67
2021/03/19 03:47:06;;;;;;;32.07;19.37;;;2.60;99.90;;;;;;5093016;28;20259;-68
2021/03/19 03:49:31;;;;;;;28.73;19.20;;;2.50;99.90;;;;;;5093866;28;20192;-67
2021/03/19 03:51:57;;;;;;;35.83;23.47;;;2.50;99.90;;;;;;5094312;28;20173;-67
2021/03/19 03:54:22;;;;;;;41.53;23.10;;;2.50;99.90;;;;;;5093862;28;20207;-67
2021/03/19 03:56:48;;;;;;;23.97;17.37;;;2.50;99.90;;;;;;5093824;28;20653;-67
2021/03/19 03:59:14;;;;;;;31.92;20.50;;;2.50;99.90;;;;;;5093730;28;20188;-68
2021/03/19 04:01:41;;;;;;;28.53;18.50;;;2.50;99.90;;;;;;5092496;28;20294;-68
2021/03/19 04:04:10;;;;;;;26.23;17.63;;;2.50;99.90;;;;;;5093701;28;20795;-68
2021/03/19 04:06:36;;;;;;;23.20;16.83;;;2.50;99.90;;;;;;5094056;28;20172;-67
2021/03/19 04:09:02;;;;;;;25.93;16.57;;;2.50;99.90;;;;;;5093715;28;20573;-68
2021/03/19 04:11:28;;;;;;;23.85;16.20;;;2.50;99.90;;;;;;5093715;28;20208;-69
2021/03/19 04:13:53;;;;;;;24.63;17.40;;;2.50;99.90;;;;;;5093635;28;20219;-69
2021/03/19 04:16:19;;;;;;;25.53;16.70;;;2.50;99.90;;;;;;5093943;28;20183;-67
2021/03/19 04:18:45;;;;;;;26.67;16.27;;;2.50;99.90;;;;;;5093615;28;20196;-67
2021/03/19 04:21:12;;;;;;;23.73;15.85;;;2.50;99.90;;;;;;5093822;28;20681;-67
2021/03/19 04:23:41;;;;;;;23.23;15.85;;;2.40;99.90;;;;;;5093632;28;20603;-67
2021/03/19 04:26:24;;;;;;;23.50;15.32;;;2.50;99.90;;;;;;5094014;28;20612;-67
2021/03/19 04:28:51;;;;;;;21.65;15.48;;;2.60;99.90;;;;;;5093567;28;20651;-67
2021/03/19 04:31:16;;;;;;;22.63;15.30;;;2.50;99.90;;;;;;5092352;28;20177;-68
2021/03/19 04:33:42;;;;;;;22.10;16.97;;;2.50;99.90;;;;;;5096264;28;20219;-68
2021/03/19 04:36:43;;;;;;;26.30;17.80;;;2.50;99.90;;;;;;5097821;28;20169;-67
2021/03/19 04:39:13;;;;;;;25.42;16.60;;;2.50;99.90;;;;;;5097574;28;20517;-68
2021/03/19 04:41:42;;;;;;;26.80;16.65;;;2.70;99.90;;;;;;5097467;28;20216;-69
2021/03/19 04:44:08;;;;;;;23.48;15.95;;;2.80;99.90;;;;;;5097450;28;20188;-68
2021/03/19 04:46:33;;;;;;;26.00;16.33;;;2.90;99.90;;;;;;5097683;28;20630;-68
2021/03/19 04:48:59;;;;;;;19.60;16.33;;;2.90;99.90;;;;;;5097374;28;20243;-68
2021/03/19 04:51:25;;;;;;;21.37;14.83;;;3.00;99.90;;;;;;5097603;28;20212;-68
2021/03/19 04:53:52;;;;;;;23.50;15.70;;;3.10;99.90;;;;;;5097065;28;20208;-67
2021/03/19 04:56:18;;;;;;;24.52;17.75;;;3.10;99.90;;;;;;5097522;28;20241;-67
2021/03/19 04:58:43;;;;;;;49.38;35.00;;;3.20;99.90;;;;;;5095774;28;20280;-68
2021/03/19 05:01:09;;;;;;;30.40;21.97;;;3.20;99.90;;;;;;5097236;28;20204;-68
2021/03/19 05:03:35;;;;;;;23.37;18.20;;;3.20;99.90;;;;;;5096876;28;20196;-67
2021/03/19 05:06:00;;;;;;;26.10;14.80;;;3.10;99.90;;;;;;5097157;28;20177;-67
2021/03/19 05:08:26;;;;;;;21.67;15.30;;;3.10;99.90;;;;;;5096917;28;20579;-67
2021/03/19 05:10:51;;;;;;;24.93;15.47;;;3.10;99.90;;;;;;5097054;28;20180;-67
2021/03/19 05:13:17;;;;;;;23.17;16.20;;;3.10;99.90;;;;;;5096891;28;20261;-68
2021/03/19 05:15:43;;;;;;;21.87;15.57;;;3.10;99.90;;;;;;5096933;28;20266;-68
2021/03/19 05:18:09;;;;;;;20.70;14.83;;;3.20;99.90;;;;;;5096690;28;20184;-67
2021/03/19 05:20:34;;;;;;;19.65;12.80;;;3.30;99.90;;;;;;5094344;28;20510;-68
2021/03/19 05:23:00;;;;;;;20.90;13.23;;;4.20;99.90;;;;;;5087456;28;20353;-68
2021/03/19 05:25:29;;;;;;;19.70;13.37;;;5.40;99.90;;;;;;5091367;28;20418;-67
2021/03/19 05:27:55;;;;;;;20.17;13.20;;;6.00;99.90;;;;;;5078091;28;20227;-68
2021/03/19 05:30:22;;;;;;;22.53;14.53;;;6.50;99.90;;;;;;5081483;28;20319;-67
2021/03/19 05:32:48;;;;;;;20.00;13.43;;;6.80;99.90;;;;;;5085333;28;20181;-68
2021/03/19 05:35:15;;;;;;;21.47;14.00;;;7.00;99.90;;;;;;5087936;28;20714;-67
2021/03/19 05:37:40;;;;;;;20.15;13.60;;;7.20;99.90;;;;;;5093026;28;20749;-68
2021/03/19 05:40:11;;;;;;;19.60;13.53;;;7.40;99.90;;;;;;5090181;28;20263;-69
2021/03/19 05:42:37;;;;;;;16.40;12.55;;;7.40;99.90;;;;;;5081473;28;20233;-68
2021/03/19 05:45:29;;;;;;;19.92;13.57;;;5.60;99.90;;;;;;5083627;28;20204;-70
2021/03/19 05:47:58;;;;;;;23.67;14.63;;;5.00;99.90;;;;;;5086564;28;20319;-68
2021/03/19 05:50:28;;;;;;;19.98;13.82;;;4.60;99.90;;;;;;5084156;28;20185;-67
2021/03/19 05:52:54;;;;;;;22.80;14.05;;;4.40;99.90;;;;;;5084942;28;20197;-69
2021/03/19 05:55:23;;;;;;;19.83;13.70;;;4.20;99.90;;;;;;5080111;28;20218;-68
2021/03/19 05:57:55;;;;;;;20.60;13.48;;;4.00;99.90;;;;;;5089502;28;20208;-69
2021/03/19 06:00:22;;;;;;;19.73;15.13;;;4.00;99.90;;;;;;5075624;28;20184;-67
2021/03/19 06:02:49;;;;;;;18.10;13.35;;;4.00;99.90;;;;;;5084036;28;20713;-69
2021/03/19 06:05:14;;;;;;;20.50;14.98;;;4.00;99.90;;;;;;5088602;28;20629;-67
2021/03/19 06:07:53;;;;;;;21.97;14.43;;;4.10;99.90;;;;;;5088595;28;20181;-68
2021/03/19 06:10:27;;;;;;;18.77;13.90;;;4.00;99.90;;;;;;5082503;28;20176;-67
2021/03/19 06:13:30;;;;;;;19.73;15.02;;;4.00;99.90;;;;;;5080263;28;20268;-67
2021/03/19 06:16:17;;;;;;;19.30;13.77;;;4.00;99.90;;;;;;5093713;28;20677;-67
2021/03/19 06:18:47;;;;;;;24.35;15.18;;;4.00;99.90;;;;;;5089766;28;20201;-68
2021/03/19 06:21:30;;;;;;;26.17;16.33;;;4.10;99.90;;;;;;5089728;28;20215;-69
2021/03/19 06:24:24;;;;;;;22.08;14.35;;;4.20;99.90;;;;;;5093102;28;20289;-68
2021/03/19 06:26:52;;;;;;;21.02;14.15;;;4.10;99.90;;;;;;5094978;28;20180;-67
2021/03/19 06:29:40;;;;;;;22.95;16.40;;;4.10;99.90;;;;;;5093916;28;20555;-68
2021/03/19 06:32:21;;;;;;;22.70;15.65;;;4.10;99.90;;;;;;5095725;28;20271;-67
2021/03/19 06:34:51;;;;;;;23.08;16.13;;;4.30;99.90;;;;;;5094803;28;20204;-68
2021/03/19 06:37:35;;;;;;;23.08;15.75;;;4.40;99.90;;;;;;5094813;28;20196;-69
2021/03/19 06:40:24;;;;;;;23.95;16.05;;;4.40;99.90;;;;;;5093032;28;20275;-67
2021/03/19 06:42:49;;;;;;;17.95;13.10;;;4.50;99.90;;;;;;5081530;28;20244;-67
2021/03/19 06:45:15;;;;;;;17.07;12.70;;;4.50;99.90;;;;;;5091353;28;20187;-69
2021/03/19 06:47:42;;;;;;;18.20;12.67;;;4.20;99.90;;;;;;5094034;28;20181;-68
2021/03/19 06:50:31;;;;;;;18.55;14.05;;;3.90;99.90;;;;;;5089477;28;20617;-69
2021/03/19 06:53:14;;;;;;;26.10;17.02;;;3.90;99.90;;;;;;5082553;28;20215;-67
2021/03/19 06:55:43;;;;;;;34.67;23.67;;;3.90;99.90;;;;;;5090686;28;20229;-67
2021/03/19 06:58:08;;;;;;;16.40;12.80;;;3.90;99.90;;;;;;5092625;28;20487;-67
2021/03/19 07:00:42;;;;;;;16.20;11.80;;;4.00;99.90;;;;;;5092755;28;20277;-67
2021/03/19 07:03:30;;;;;;;16.38;11.57;;;4.10;99.90;;;;;;5091387;28;20243;-68
2021/03/19 07:06:05;;;;;;;14.35;9.80;;;4.10;99.90;;;;;;5094183;28;20164;-70
2021/03/19 07:09:00;;;;;;;18.85;11.57;;;4.00;99.90;;;;;;5094473;28;20236;-69
2021/03/19 07:11:54;;;;;;;13.85;9.98;;;4.00;99.90;;;;;;5093300;28;20181;-70
2021/03/19 07:14:45;;;;;;;18.05;10.98;;;4.10;99.90;;;;;;5093899;28;20222;-70
2021/03/19 07:17:39;;;;;;;17.17;10.30;;;4.10;99.90;;;;;;5083205;28;20212;-67
2021/03/19 07:20:55;;;;;;;12.30;9.23;;;4.30;99.90;;;;;;5092623;28;20551;-70
2021/03/19 07:23:23;;;;;;;13.07;9.50;;;4.30;99.90;;;;;;5054191;28;20218;-67
2021/03/19 07:26:05;;;;;;;14.05;9.55;;;4.40;99.90;;;;;;5091521;28;20187;-67
2021/03/19 07:28:49;;;;;;;14.25;10.43;;;4.50;99.90;;;;;;5092522;28;20695;-67
2021/03/19 07:31:38;;;;;;;14.15;9.75;;;4.60;99.90;;;;;;5095295;28;20183;-71
2021/03/19 07:34:22;;;;;;;11.90;9.02;;;4.70;99.90;;;;;;5093479;28;20203;-70
2021/03/19 07:37:04;;;;;;;11.10;8.75;;;4.80;99.90;;;;;;5094281;28;20225;-67
2021/03/19 07:39:46;;;;;;;11.10;9.13;;;4.90;99.90;;;;;;5073475;28;20609;-68
2021/03/19 07:42:48;;;;;;;11.48;8.50;;;5.00;99.90;;;;;;5079730;28;20259;-69
2021/03/19 07:45:32;;;;;;;10.95;8.90;;;5.20;99.90;;;;;;5093250;28;20180;-68
2021/03/19 07:48:01;;;;;;;12.43;8.50;;;5.10;99.90;;;;;;5090632;28;20737;-67
2021/03/19 07:50:30;;;;;;;10.65;8.65;;;4.90;99.90;;;;;;5093471;28;20657;-67
2021/03/19 07:53:14;;;;;;;21.13;14.18;;;4.90;99.90;;;;;;5092476;28;20204;-67
2021/03/19 07:55:52;;;;;;;17.85;11.60;;;4.90;99.90;;;;;;5093231;28;20172;-68
2021/03/19 07:58:45;;;;;;;11.15;8.05;;;4.80;99.90;;;;;;5093086;28;20555;-67
2021/03/19 08:01:34;;;;;;;11.35;8.25;;;4.80;99.90;;;;;;5091875;28;20219;-68
2021/03/19 08:04:43;;;;;;;9.25;7.25;;;4.70;99.90;;;;;;5088435;28;20208;-65
2021/03/19 08:07:27;;;;;;;9.75;7.35;;;4.80;99.90;;;;;;5087884;28;20180;-68
2021/03/19 08:10:05;;;;;;;11.77;7.43;;;4.80;99.90;;;;;;5086190;28;20232;-66
2021/03/19 08:12:42;;;;;;;17.20;8.90;;;4.70;99.90;;;;;;5091993;28;20176;-69
2021/03/19 08:15:38;;;;;;;12.13;8.90;;;4.80;99.90;;;;;;5091671;28;20614;-68
2021/03/19 08:18:25;;;;;;;12.15;8.90;;;4.90;99.90;;;;;;5091128;28;20260;-67
2021/03/19 08:20:59;;;;;;;12.38;9.45;;;5.00;99.90;;;;;;5089900;28;20192;-68
2021/03/19 08:23:52;;;;;;;12.07;8.45;;;5.20;99.90;;;;;;5090366;28;20304;-68
2021/03/19 08:26:37;;;;;;;10.68;8.60;;;5.20;99.90;;;;;;5089961;28;20264;-68
2021/03/19 08:29:26;;;;;;;12.73;8.18;;;5.40;99.90;;;;;;5091433;28;20198;-69
2021/03/19 08:32:03;;;;;;;9.10;6.35;;;5.80;99.90;;;;;;5092703;28;20199;-69
2021/03/19 08:34:54;;;;;;;11.32;8.90;;;5.90;99.90;;;;;;5093261;28;20699;-67
2021/03/19 08:37:40;;;;;;;9.98;8.23;;;5.90;99.90;;;;;;5094012;28;20188;-69
2021/03/19 08:40:16;;;;;;;10.10;8.25;;;5.90;99.90;;;;;;5091573;28;20184;-69
2021/03/19 08:42:47;;;;;;;10.38;8.38;;;6.20;99.90;;;;;;5084996;28;20827;-67
2021/03/19 08:45:22;;;;;;;10.05;8.20;;;6.30;99.90;;;;;;5089422;28;20329;-69
2021/03/19 08:47:50;;;;;;;11.70;9.23;;;6.40;99.90;;;;;;5083926;28;20585;-68
2021/03/19 08:50:16;;;;;;;10.95;9.48;;;6.20;99.90;;;;;;5088631;28;20581;-69
2021/03/19 08:53:00;;;;;;;10.70;8.90;;;6.40;99.90;;;;;;5080616;28;20234;-67
2021/03/19 08:55:29;;;;;;;11.05;9.82;;;6.40;99.90;;;;;;5076274;28;20271;-69
2021/03/19 08:57:57;;;;;;;11.68;9.07;;;6.40;99.90;;;;;;5089103;28;20230;-69
2021/03/19 09:00:26;;;;;;;19.77;16.35;;;6.50;99.90;;;;;;5087705;28;20184;-69
2021/03/19 09:03:02;;;;;;;11.60;9.88;;;6.60;99.90;;;;;;5086431;28;20235;-67
2021/03/19 09:05:32;;;;;;;12.10;9.40;;;6.60;99.90;;;;;;5087758;28;20583;-67
2021/03/19 09:08:22;;;;;;;12.38;9.20;;;6.60;99.20;;;;;;5085023;28;20338;-69
2021/03/19 09:10:51;;;;;;;12.00;9.52;;;7.00;99.60;;;;;;5083473;28;20737;-67
2021/03/19 09:13:18;;;;;;;12.23;9.65;;;6.90;98.20;;;;;;5089952;28;20765;-68
2021/03/19 09:15:46;;;;;;;10.95;8.80;;;7.40;99.20;;;;;;5092019;28;20181;-67
2021/03/19 09:18:30;;;;;;;14.02;9.43;;;7.30;96.00;;;;;;5089522;28;20685;-68
2021/03/19 09:21:02;;;;;;;9.88;8.65;;;7.80;97.60;;;;;;5093467;28;20168;-69
2021/03/19 09:24:03;;;;;;;10.30;9.20;;;8.30;98.20;;;;;;5094200;28;20208;-68
2021/03/19 09:26:50;;;;;;;10.80;9.00;;;8.50;95.70;;;;;;5093689;28;20661;-69
2021/03/19 09:29:16;;;;;;;16.02;8.88;;;8.40;96.30;;;;;;5092082;28;20573;-68
2021/03/19 09:31:54;;;;;;;10.27;8.47;;;8.30;93.20;;;;;;5095379;28;20176;-69
2021/03/19 09:34:41;;;;;;;9.63;8.63;;;8.10;92.60;;;;;;5093644;28;20227;-68
2021/03/19 09:37:30;;;;;;;11.60;9.07;;;8.00;92.30;;;;;;5092983;28;20187;-68
2021/03/19 09:40:06;;;;;;;11.15;9.23;;;7.80;92.80;;;;;;5089867;28;20250;-67
2021/03/19 09:42:32;;;;;;;9.10;8.25;;;7.80;93.40;;;;;;5087029;28;20263;-67
2021/03/19 09:45:04;;;;;;;14.50;9.83;;;7.90;92.90;;;;;;5086908;28;20173;-69
2021/03/19 09:47:36;;;;;;;11.02;9.82;;;7.90;92.40;;;;;;5093073;28;20180;-68
2021/03/19 09:50:27;;;;;;;10.63;9.40;;;7.60;92.80;;;;;;5093906;28;20181;-69
2021/03/19 09:53:32;;;;;;;12.80;10.18;;;7.80;92.60;;;;;;5091819;28;20204;-69
2021/03/19 09:56:01;;;;;;;12.40;9.30;;;7.80;91.90;;;;;;5092287;28;20196;-68
2021/03/19 09:58:29;;;;;;;9.20;8.30;;;7.90;91.80;;;;;;5096659;28;20200;-68
2021/03/19 10:01:00;;;;;;;9.40;8.35;;;7.80;90.70;;;;;;5095165;28;20260;-68
2021/03/19 10:03:25;;;;;;;11.90;8.75;;;7.90;92.20;;;;;;5093989;28;20219;-68
2021/03/19 10:05:51;;;;;;;15.57;9.50;;;7.90;91.60;;;;;;5094401;28;20193;-68
2021/03/19 10:08:28;;;;;;;18.33;12.50;;;7.90;90.50;;;;;;5094640;28;20562;-67
2021/03/19 10:11:11;;;;;;;23.52;15.13;;;7.80;91.70;;;;;;5094068;28;20175;-67
2021/03/19 10:13:36;;;;;;;13.80;10.00;;;7.80;91.20;;;;;;5094006;28;20260;-67
2021/03/19 10:16:03;;;;;;;11.30;8.70;;;7.50;90.70;;;;;;5092666;28;20259;-68
2021/03/19 10:18:39;;;;;;;9.52;8.50;;;7.30;89.30;;;;;;5092990;28;20193;-67
2021/03/19 10:21:10;;;;;;;10.20;8.63;;;7.40;86.90;;;;;;5093648;28;20637;-69
2021/03/19 10:23:39;;;;;;;10.18;9.15;;;7.40;87.40;;;;;;5083556;28;20569;-67
2021/03/19 10:26:27;;;;;;;10.38;8.30;;;7.50;88.70;;;;;;5087051;28;20257;-67
2021/03/19 10:29:10;;;;;;;8.23;7.43;;;7.80;84.70;;;;;;5083433;28;20216;-67
2021/03/19 10:31:59;;;;;;;9.32;7.70;;;7.90;86.40;;;;;;5095684;28;20225;-68
2021/03/19 10:34:45;;;;;;;8.00;7.25;;;7.90;82.70;;;;;;5100224;28;20628;-68
2021/03/19 10:37:36;;;;;;;8.63;7.72;;;8.10;83.40;;;;;;5102977;28;20201;-68
2021/03/19 10:40:10;;;;;;;8.50;7.57;;;8.10;78.30;;;;;;5097274;28;20175;-67
2021/03/19 10:43:01;;;;;;;9.07;7.93;;;8.20;83.30;;;;;;5099828;28;20242;-68
2021/03/19 10:46:02;;;;;;;9.60;8.60;;;8.50;84.60;;;;;;5095912;28;20188;-67
2021/03/19 10:48:37;;;;;;;10.50;9.52;;;8.80;81.60;;;;;;5099633;28;20246;-68
2021/03/19 10:51:30;;;;;;;10.05;9.05;;;9.00;81.50;;;;;;5092460;28;20262;-69
2021/03/19 10:54:24;;;;;;;10.18;8.50;;;9.30;79.20;;;;;;5097534;28;20207;-69
2021/03/19 10:56:57;;;;;;;10.05;9.15;;;9.30;79.00;;;;;;5098664;28;20175;-68
2021/03/19 10:59:28;;;;;;;11.02;9.27;;;9.40;77.10;;;;;;5103565;28;20638;-68
2021/03/19 11:02:06;;;;;;;11.88;10.18;;;9.50;80.80;;;;;;5095750;28;20220;-67
2021/03/19 11:04:41;;;;;;;11.02;9.40;;;9.80;80.40;;;;;;5091823;28;20253;-69
2021/03/19 11:07:35;;;;;;;10.05;9.05;;;10.00;81.30;;;;;;5088855;28;20186;-69
2021/03/19 11:10:24;;;;;;;10.60;8.85;;;10.00;80.50;;;;;;5087649;28;20321;-67
2021/03/19 11:13:16;;;;;;;10.32;9.32;;;9.40;78.00;;;;;;5089492;28;20207;-69
2021/03/19 11:15:50;;;;;;;8.88;8.02;;;8.90;77.80;;;;;;5090516;28;20168;-68
2021/03/19 11:18:38;;;;;;;13.93;12.18;;;9.10;79.40;;;;;;5090847;28;20366;-67
2021/03/19 11:21:07;;;;;;;13.10;10.45;;;8.90;81.20;;;;;;5089329;28;20235;-69
2021/03/19 11:23:36;;;;;;;9.68;8.68;;;8.70;78.20;;;;;;5091588;28;20220;-68
2021/03/19 11:26:28;;;;;;;10.90;9.90;;;8.50;78.50;;;;;;5091673;28;20271;-70
2021/03/19 11:29:20;;;;;;;10.38;9.32;;;8.50;81.40;;;;;;5090449;28;20196;-70
2021/03/19 11:32:02;;;;;;;10.52;9.43;;;8.60;81.90;;;;;;5084116;28;20199;-68
2021/03/19 11:34:44;;;;;;;10.25;9.15;;;8.60;76.20;;;;;;5090813;28;20209;-69
2021/03/19 11:37:18;;;;;;;9.60;8.70;;;8.90;78.70;;;;;;5093666;28;20622;-68
2021/03/19 11:39:54;;;;;;;10.30;9.30;;;9.30;79.30;;;;;;5093336;28;20282;-70
2021/03/19 11:42:33;;;;;;;10.13;9.13;;;8.90;74.60;;;;;;5090460;28;20783;-68
2021/03/19 11:45:06;;;;;;;10.77;9.73;;;8.30;74.60;;;;;;5084044;28;20229;-70
2021/03/19 11:47:35;;;;;;;11.02;9.15;;;8.30;74.80;;;;;;5077339;28;20271;-70
2021/03/19 11:50:26;;;;;;;10.45;9.40;;;8.20;74.30;;;;;;5092124;28;20195;-68
2021/03/19 11:53:01;;;;;;;13.02;11.45;;;8.60;76.60;;;;;;5091577;28;20210;-68
2021/03/19 11:55:34;;;;;;;9.85;8.95;;;9.00;75.70;;;;;;5096963;28;20180;-68
2021/03/19 11:58:00;;;;;;;13.57;11.43;;;8.90;76.30;;;;;;5098638;28;20659;-69
2021/03/19 12:00:32;;;;;;;15.05;11.65;;;8.70;75.80;;;;;;5103670;28;20197;-70
2021/03/19 12:03:05;;;;;;;32.03;21.02;;;8.90;81.20;;;;;;5095713;28;20584;-70
2021/03/19 12:05:32;;;;;;;12.05;10.23;;;8.90;81.10;;;;;;5090159;28;20240;-69
2021/03/19 12:07:58;;;;;;;20.25;17.02;;;8.80;77.90;;;;;;5090852;28;20223;-68
2021/03/19 12:10:29;;;;;;;14.88;12.40;;;8.80;79.00;;;;;;5090157;28;20184;-70
2021/03/19 12:13:00;;;;;;;15.48;11.57;;;8.60;77.80;;;;;;5091142;28;20256;-68
2021/03/19 12:15:27;;;;;;;13.02;11.73;;;8.60;81.70;;;;;;5091280;28;20183;-70
2021/03/19 12:17:53;;;;;;;10.85;9.85;;;8.60;77.50;;;;;;5109711;28;20567;-68
2021/03/19 12:20:19;;;;;;;11.93;10.57;;;8.40;77.50;;;;;;5097158;28;20187;-70
2021/03/19 12:22:46;;;;;;;10.88;9.85;;;8.10;76.10;;;;;;5094608;28;20219;-68
2021/03/19 12:25:19;;;;;;;12.02;10.82;;;8.20;77.50;;;;;;5089245;28;20172;-68
2021/03/19 12:27:46;;;;;;;13.05;10.55;;;8.30;79.70;;;;;;5091929;28;20175;-69
2021/03/19 12:30:13;;;;;;;12.48;11.02;;;8.20;78.50;;;;;;5092468;28;20690;-70
2021/03/19 12:32:38;;;;;;;11.00;9.95;;;8.00;77.80;;;;;;5091274;28;20545;-67
2021/03/19 12:35:04;;;;;;;11.50;9.70;;;8.00;81.20;;;;;;5078402;28;20172;-69
2021/03/19 12:37:30;;;;;;;13.75;12.20;;;8.10;77.70;;;;;;5084205;28;20989;-70
2021/03/19 12:39:56;;;;;;;15.70;12.37;;;8.10;79.00;;;;;;5090706;28;20172;-69
2021/03/19 12:42:21;;;;;;;12.70;11.40;;;8.10;78.10;;;;;;5086804;28;20293;-68
2021/03/19 12:44:47;;;;;;;12.37;10.33;;;8.00;80.10;;;;;;5090166;28;20200;-68
2021/03/19 12:47:12;;;;;;;14.50;12.43;;;8.00;78.10;;;;;;5090510;28;20204;-69
2021/03/19 12:49:38;;;;;;;12.77;11.53;;;8.10;78.10;;;;;;5091466;28;20211;-69
2021/03/19 12:52:04;;;;;;;13.10;10.40;;;7.80;76.60;;;;;;5091127;28;20513;-69
2021/03/19 12:54:29;;;;;;;11.70;9.57;;;7.80;76.20;;;;;;5093906;28;20702;-69
2021/03/19 12:56:55;;;;;;;11.60;10.00;;;7.90;80.90;;;;;;5102524;28;20179;-69
2021/03/19 12:59:20;;;;;;;11.00;9.90;;;7.80;75.30;;;;;;5097831;28;20291;-68
2021/03/19 13:01:46;;;;;;;11.20;9.97;;;7.80;80.00;;;;;;5092776;28;20219;-67
2021/03/19 13:04:12;;;;;;;21.00;16.40;;;7.80;78.80;;;;;;5099520;28;20627;-69
2021/03/19 13:06:37;;;;;;;14.80;12.60;;;7.90;78.40;;;;;;5105025;28;20169;-70
2021/03/19 13:09:04;;;;;;;19.40;15.73;;;8.00;78.50;;;;;;5100663;28;20212;-69
2021/03/19 13:11:29;;;;;;;13.20;11.77;;;8.00;78.60;;;;;;5097527;28;20432;-69
2021/03/19 13:13:55;;;;;;;12.17;10.87;;;8.00;80.20;;;;;;5094949;28;20265;-69
2021/03/19 13:16:21;;;;;;;11.23;10.13;;;8.00;78.20;;;;;;5093927;28;20645;-69
2021/03/19 13:18:48;;;;;;;10.98;9.77;;;7.90;77.60;;;;;;5093468;28;20972;-68